sensor_id;sensor_type;location;lat;lon;timestamp;P1;durP1;ratioP1;P2;durP2;ratioP2
72037;SDS011;59900;50.788;12.904;2022-12-17T00:01:31;71.82;;;25.70;;
72037;SDS011;59900;50.788;12.904;2022-12-17T00:04:15;79.30;;;25.67;;
72037;SDS011;59900;50.788;12.904;2022-12-17T00:06:58;71.45;;;23.65;;
72037;SDS011;59900;50.788;12.904;2022-12-17T00:09:42;82.95;;;26.25;;
72037;SDS011;59900;50.788;12.904;2022-12-17T00:12:26;73.80;;;24.13;;
72037;SDS011;59900;50.788;12.904;2022-12-17T00:15:10;76.55;;;25.23;;
72037;SDS011;59900;50.788;12.904;2022-12-17T00:18:00;74.40;;;25.65;;
72037;SDS011;59900;50.788;12.904;2022-12-17T00:20:50;71.57;;;24.42;;
72037;SDS011;59900;50.788;12.904;2022-12-17T00:23:38;77.20;;;23.60;;
72037;SDS011;59900;50.788;12.904;2022-12-17T00:26:21;88.77;;;27.33;;
72037;SDS011;59900;50.788;12.904;2022-12-17T00:29:05;83.00;;;24.70;;
72037;SDS011;59900;50.788;12.904;2022-12-17T00:31:49;73.10;;;25.88;;
72037;SDS011;59900;50.788;12.904;2022-12-17T00:34:33;70.82;;;23.38;;
72037;SDS011;59900;50.788;12.904;2022-12-17T00:37:17;69.90;;;24.20;;
72037;SDS011;59900;50.788;12.904;2022-12-17T00:40:14;85.80;;;24.83;;
72037;SDS011;59900;50.788;12.904;2022-12-17T00:42:59;79.38;;;23.77;;
72037;SDS011;59900;50.788;12.904;2022-12-17T00:45:50;74.80;;;24.70;;
72037;SDS011;59900;50.788;12.904;2022-12-17T00:48:35;79.00;;;25.48;;
72037;SDS011;59900;50.788;12.904;2022-12-17T00:51:19;77.93;;;24.10;;
72037;SDS011;59900;50.788;12.904;2022-12-17T00:54:03;79.57;;;26.17;;
72037;SDS011;59900;50.788;12.904;2022-12-17T00:56:47;73.50;;;23.73;;
72037;SDS011;59900;50.788;12.904;2022-12-17T00:59:31;83.30;;;24.08;;
72037;SDS011;59900;50.788;12.904;2022-12-17T01:02:15;84.82;;;24.92;;
72037;SDS011;59900;50.788;12.904;2022-12-17T01:05:00;83.07;;;25.23;;
72037;SDS011;59900;50.788;12.904;2022-12-17T01:07:43;89.13;;;24.33;;
72037;SDS011;59900;50.788;12.904;2022-12-17T01:10:27;77.65;;;23.27;;
72037;SDS011;59900;50.788;12.904;2022-12-17T01:13:13;85.97;;;27.13;;
72037;SDS011;59900;50.788;12.904;2022-12-17T01:16:05;78.88;;;25.88;;
72037;SDS011;59900;50.788;12.904;2022-12-17T01:18:52;85.40;;;24.35;;
72037;SDS011;59900;50.788;12.904;2022-12-17T01:21:36;78.23;;;22.77;;
72037;SDS011;59900;50.788;12.904;2022-12-17T01:24:21;89.35;;;25.92;;
72037;SDS011;59900;50.788;12.904;2022-12-17T01:27:05;79.43;;;24.67;;
72037;SDS011;59900;50.788;12.904;2022-12-17T01:29:50;77.20;;;24.63;;
72037;SDS011;59900;50.788;12.904;2022-12-17T01:32:34;80.68;;;26.90;;
72037;SDS011;59900;50.788;12.904;2022-12-17T01:35:18;80.57;;;26.63;;
72037;SDS011;59900;50.788;12.904;2022-12-17T01:38:02;81.82;;;25.15;;
72037;SDS011;59900;50.788;12.904;2022-12-17T01:40:51;80.80;;;26.50;;
72037;SDS011;59900;50.788;12.904;2022-12-17T01:43:36;74.75;;;25.73;;
72037;SDS011;59900;50.788;12.904;2022-12-17T01:46:21;76.30;;;23.98;;
72037;SDS011;59900;50.788;12.904;2022-12-17T01:49:07;69.17;;;24.00;;
72037;SDS011;59900;50.788;12.904;2022-12-17T01:51:52;80.00;;;24.73;;
72037;SDS011;59900;50.788;12.904;2022-12-17T01:54:36;66.63;;;22.38;;
72037;SDS011;59900;50.788;12.904;2022-12-17T01:57:22;88.80;;;24.50;;
72037;SDS011;59900;50.788;12.904;2022-12-17T02:00:07;78.05;;;24.02;;
72037;SDS011;59900;50.788;12.904;2022-12-17T02:02:54;75.37;;;24.83;;
72037;SDS011;59900;50.788;12.904;2022-12-17T02:05:48;74.25;;;23.90;;
72037;SDS011;59900;50.788;12.904;2022-12-17T02:08:53;74.22;;;25.45;;
72037;SDS011;59900;50.788;12.904;2022-12-17T02:11:58;80.65;;;25.52;;
72037;SDS011;59900;50.788;12.904;2022-12-17T02:15:12;71.35;;;24.17;;
72037;SDS011;59900;50.788;12.904;2022-12-17T02:18:05;75.00;;;23.17;;
72037;SDS011;59900;50.788;12.904;2022-12-17T02:20:56;75.90;;;24.48;;
72037;SDS011;59900;50.788;12.904;2022-12-17T02:26:44;76.10;;;24.10;;
72037;SDS011;59900;50.788;12.904;2022-12-17T02:29:34;75.82;;;22.80;;
72037;SDS011;59900;50.788;12.904;2022-12-17T02:32:23;74.77;;;25.03;;
72037;SDS011;59900;50.788;12.904;2022-12-17T02:35:15;62.03;;;23.17;;
72037;SDS011;59900;50.788;12.904;2022-12-17T02:38:14;72.47;;;24.70;;
72037;SDS011;59900;50.788;12.904;2022-12-17T02:40:59;63.17;;;23.25;;
72037;SDS011;59900;50.788;12.904;2022-12-17T02:43:44;77.13;;;25.75;;
72037;SDS011;59900;50.788;12.904;2022-12-17T02:46:28;69.33;;;23.43;;
72037;SDS011;59900;50.788;12.904;2022-12-17T02:49:12;78.50;;;24.67;;
72037;SDS011;59900;50.788;12.904;2022-12-17T02:51:56;75.82;;;25.25;;
72037;SDS011;59900;50.788;12.904;2022-12-17T02:54:40;71.30;;;23.30;;
72037;SDS011;59900;50.788;12.904;2022-12-17T02:57:23;73.95;;;27.42;;
72037;SDS011;59900;50.788;12.904;2022-12-17T03:00:07;72.50;;;23.37;;
72037;SDS011;59900;50.788;12.904;2022-12-17T03:02:51;75.78;;;23.05;;
72037;SDS011;59900;50.788;12.904;2022-12-17T03:05:35;71.32;;;24.50;;
72037;SDS011;59900;50.788;12.904;2022-12-17T03:08:19;72.40;;;23.58;;
72037;SDS011;59900;50.788;12.904;2022-12-17T03:11:03;71.47;;;24.00;;
72037;SDS011;59900;50.788;12.904;2022-12-17T03:13:47;65.13;;;23.97;;
72037;SDS011;59900;50.788;12.904;2022-12-17T03:16:31;83.65;;;25.23;;
72037;SDS011;59900;50.788;12.904;2022-12-17T03:19:15;79.55;;;26.10;;
72037;SDS011;59900;50.788;12.904;2022-12-17T03:21:58;67.47;;;23.08;;
72037;SDS011;59900;50.788;12.904;2022-12-17T03:24:42;70.47;;;22.90;;
72037;SDS011;59900;50.788;12.904;2022-12-17T03:27:26;64.07;;;22.63;;
72037;SDS011;59900;50.788;12.904;2022-12-17T03:30:10;67.43;;;24.05;;
72037;SDS011;59900;50.788;12.904;2022-12-17T03:32:54;76.18;;;24.70;;
72037;SDS011;59900;50.788;12.904;2022-12-17T03:35:38;65.18;;;22.92;;
72037;SDS011;59900;50.788;12.904;2022-12-17T03:38:22;75.75;;;24.05;;
72037;SDS011;59900;50.788;12.904;2022-12-17T03:41:06;64.67;;;23.00;;
72037;SDS011;59900;50.788;12.904;2022-12-17T03:43:50;74.22;;;24.40;;
72037;SDS011;59900;50.788;12.904;2022-12-17T03:46:34;66.32;;;23.55;;
72037;SDS011;59900;50.788;12.904;2022-12-17T03:49:17;65.60;;;22.10;;
72037;SDS011;59900;50.788;12.904;2022-12-17T03:52:02;67.68;;;22.05;;
72037;SDS011;59900;50.788;12.904;2022-12-17T03:54:45;70.63;;;23.37;;
72037;SDS011;59900;50.788;12.904;2022-12-17T03:57:29;56.17;;;22.10;;
72037;SDS011;59900;50.788;12.904;2022-12-17T04:00:32;64.55;;;23.98;;
72037;SDS011;59900;50.788;12.904;2022-12-17T04:03:16;63.58;;;22.35;;
72037;SDS011;59900;50.788;12.904;2022-12-17T04:06:00;59.08;;;22.70;;
72037;SDS011;59900;50.788;12.904;2022-12-17T04:08:44;58.97;;;23.07;;
72037;SDS011;59900;50.788;12.904;2022-12-17T04:11:28;67.00;;;22.48;;
72037;SDS011;59900;50.788;12.904;2022-12-17T04:14:12;58.33;;;22.17;;
72037;SDS011;59900;50.788;12.904;2022-12-17T04:16:56;62.72;;;22.13;;
72037;SDS011;59900;50.788;12.904;2022-12-17T04:19:40;69.07;;;22.27;;
72037;SDS011;59900;50.788;12.904;2022-12-17T04:22:23;61.20;;;22.60;;
72037;SDS011;59900;50.788;12.904;2022-12-17T04:25:07;63.58;;;22.30;;
72037;SDS011;59900;50.788;12.904;2022-12-17T04:27:51;70.30;;;22.77;;
72037;SDS011;59900;50.788;12.904;2022-12-17T04:30:35;64.30;;;22.38;;
72037;SDS011;59900;50.788;12.904;2022-12-17T04:33:19;63.58;;;22.58;;
72037;SDS011;59900;50.788;12.904;2022-12-17T04:36:03;60.43;;;20.20;;
72037;SDS011;59900;50.788;12.904;2022-12-17T04:38:47;72.53;;;22.30;;
72037;SDS011;59900;50.788;12.904;2022-12-17T04:41:30;65.03;;;23.55;;
72037;SDS011;59900;50.788;12.904;2022-12-17T04:44:14;61.95;;;20.98;;
72037;SDS011;59900;50.788;12.904;2022-12-17T04:46:58;63.55;;;20.35;;
72037;SDS011;59900;50.788;12.904;2022-12-17T04:49:42;64.77;;;21.77;;
72037;SDS011;59900;50.788;12.904;2022-12-17T04:52:26;72.18;;;22.85;;
72037;SDS011;59900;50.788;12.904;2022-12-17T04:55:10;64.25;;;23.33;;
72037;SDS011;59900;50.788;12.904;2022-12-17T04:57:53;63.55;;;23.17;;
72037;SDS011;59900;50.788;12.904;2022-12-17T05:00:37;63.05;;;22.02;;
72037;SDS011;59900;50.788;12.904;2022-12-17T05:03:21;69.57;;;22.27;;
72037;SDS011;59900;50.788;12.904;2022-12-17T05:06:05;63.80;;;21.85;;
72037;SDS011;59900;50.788;12.904;2022-12-17T05:08:49;63.45;;;21.20;;
72037;SDS011;59900;50.788;12.904;2022-12-17T05:11:33;56.65;;;20.92;;
72037;SDS011;59900;50.788;12.904;2022-12-17T05:14:16;62.05;;;22.42;;
72037;SDS011;59900;50.788;12.904;2022-12-17T05:17:00;62.30;;;21.67;;
72037;SDS011;59900;50.788;12.904;2022-12-17T05:19:44;66.40;;;21.98;;
72037;SDS011;59900;50.788;12.904;2022-12-17T05:22:28;60.45;;;21.48;;
72037;SDS011;59900;50.788;12.904;2022-12-17T05:25:12;64.75;;;21.90;;
72037;SDS011;59900;50.788;12.904;2022-12-17T05:27:56;71.95;;;22.95;;
72037;SDS011;59900;50.788;12.904;2022-12-17T05:30:40;69.57;;;21.57;;
72037;SDS011;59900;50.788;12.904;2022-12-17T05:33:24;72.50;;;22.25;;
72037;SDS011;59900;50.788;12.904;2022-12-17T05:36:11;79.35;;;23.02;;
72037;SDS011;59900;50.788;12.904;2022-12-17T05:38:55;80.28;;;23.27;;
72037;SDS011;59900;50.788;12.904;2022-12-17T05:41:39;75.82;;;23.55;;
72037;SDS011;59900;50.788;12.904;2022-12-17T05:44:22;76.10;;;24.60;;
72037;SDS011;59900;50.788;12.904;2022-12-17T05:47:06;82.35;;;24.45;;
72037;SDS011;59900;50.788;12.904;2022-12-17T05:49:50;77.85;;;23.30;;
72037;SDS011;59900;50.788;12.904;2022-12-17T05:52:34;71.75;;;22.70;;
72037;SDS011;59900;50.788;12.904;2022-12-17T05:55:17;86.55;;;25.20;;
72037;SDS011;59900;50.788;12.904;2022-12-17T05:58:05;86.70;;;24.43;;
72037;SDS011;59900;50.788;12.904;2022-12-17T06:00:55;79.18;;;23.52;;
72037;SDS011;59900;50.788;12.904;2022-12-17T06:03:40;80.40;;;25.30;;
72037;SDS011;59900;50.788;12.904;2022-12-17T06:06:23;85.13;;;23.10;;
72037;SDS011;59900;50.788;12.904;2022-12-17T06:09:07;111.80;;;23.88;;
72037;SDS011;59900;50.788;12.904;2022-12-17T06:11:51;115.73;;;25.37;;
72037;SDS011;59900;50.788;12.904;2022-12-17T06:14:35;101.18;;;23.40;;
72037;SDS011;59900;50.788;12.904;2022-12-17T06:17:19;129.20;;;24.20;;
72037;SDS011;59900;50.788;12.904;2022-12-17T06:20:03;99.25;;;24.17;;
72037;SDS011;59900;50.788;12.904;2022-12-17T06:22:57;101.88;;;23.85;;
72037;SDS011;59900;50.788;12.904;2022-12-17T06:25:42;86.27;;;22.30;;
72037;SDS011;59900;50.788;12.904;2022-12-17T06:28:26;162.70;;;24.70;;
72037;SDS011;59900;50.788;12.904;2022-12-17T06:31:10;96.93;;;23.58;;
72037;SDS011;59900;50.788;12.904;2022-12-17T06:33:53;120.95;;;24.00;;
72037;SDS011;59900;50.788;12.904;2022-12-17T06:36:37;98.13;;;22.42;;
72037;SDS011;59900;50.788;12.904;2022-12-17T06:39:21;97.47;;;23.60;;
72037;SDS011;59900;50.788;12.904;2022-12-17T06:42:05;133.95;;;21.90;;
72037;SDS011;59900;50.788;12.904;2022-12-17T06:44:48;133.85;;;23.83;;
72037;SDS011;59900;50.788;12.904;2022-12-17T06:47:32;149.48;;;20.55;;
72037;SDS011;59900;50.788;12.904;2022-12-17T06:50:16;122.55;;;21.08;;
72037;SDS011;59900;50.788;12.904;2022-12-17T06:53:00;88.97;;;21.30;;
72037;SDS011;59900;50.788;12.904;2022-12-17T06:55:46;115.30;;;21.52;;
72037;SDS011;59900;50.788;12.904;2022-12-17T06:58:29;123.72;;;22.85;;
72037;SDS011;59900;50.788;12.904;2022-12-17T07:01:13;104.82;;;23.10;;
72037;SDS011;59900;50.788;12.904;2022-12-17T07:03:57;122.75;;;22.73;;
72037;SDS011;59900;50.788;12.904;2022-12-17T07:06:41;100.40;;;22.30;;
72037;SDS011;59900;50.788;12.904;2022-12-17T07:09:25;111.57;;;21.65;;
72037;SDS011;59900;50.788;12.904;2022-12-17T07:12:09;124.40;;;21.98;;
72037;SDS011;59900;50.788;12.904;2022-12-17T07:14:52;97.20;;;21.05;;
72037;SDS011;59900;50.788;12.904;2022-12-17T07:17:36;104.72;;;20.88;;
72037;SDS011;59900;50.788;12.904;2022-12-17T07:20:20;115.00;;;20.33;;
72037;SDS011;59900;50.788;12.904;2022-12-17T07:23:04;105.88;;;21.00;;
72037;SDS011;59900;50.788;12.904;2022-12-17T07:25:48;145.57;;;22.05;;
72037;SDS011;59900;50.788;12.904;2022-12-17T07:28:31;128.98;;;18.90;;
72037;SDS011;59900;50.788;12.904;2022-12-17T07:31:15;89.25;;;21.98;;
72037;SDS011;59900;50.788;12.904;2022-12-17T07:33:59;104.00;;;21.33;;
72037;SDS011;59900;50.788;12.904;2022-12-17T07:36:43;99.10;;;20.77;;
72037;SDS011;59900;50.788;12.904;2022-12-17T07:39:27;129.13;;;20.60;;
72037;SDS011;59900;50.788;12.904;2022-12-17T07:42:10;101.70;;;19.88;;
72037;SDS011;59900;50.788;12.904;2022-12-17T07:44:54;92.95;;;20.85;;
72037;SDS011;59900;50.788;12.904;2022-12-17T07:47:38;88.17;;;20.87;;
72037;SDS011;59900;50.788;12.904;2022-12-17T07:50:22;119.07;;;19.02;;
72037;SDS011;59900;50.788;12.904;2022-12-17T07:53:06;89.03;;;21.88;;
72037;SDS011;59900;50.788;12.904;2022-12-17T07:55:50;80.47;;;19.00;;
72037;SDS011;59900;50.788;12.904;2022-12-17T07:58:34;101.60;;;21.02;;
72037;SDS011;59900;50.788;12.904;2022-12-17T08:01:18;107.87;;;21.10;;
72037;SDS011;59900;50.788;12.904;2022-12-17T08:04:02;111.70;;;20.33;;
72037;SDS011;59900;50.788;12.904;2022-12-17T08:06:46;105.93;;;20.13;;
72037;SDS011;59900;50.788;12.904;2022-12-17T08:09:29;103.10;;;20.35;;
72037;SDS011;59900;50.788;12.904;2022-12-17T08:12:13;129.93;;;19.10;;
72037;SDS011;59900;50.788;12.904;2022-12-17T08:14:57;73.50;;;18.60;;
72037;SDS011;59900;50.788;12.904;2022-12-17T08:17:41;89.28;;;20.02;;
72037;SDS011;59900;50.788;12.904;2022-12-17T08:20:25;90.80;;;18.58;;
72037;SDS011;59900;50.788;12.904;2022-12-17T08:23:09;110.78;;;20.17;;
72037;SDS011;59900;50.788;12.904;2022-12-17T08:25:53;92.75;;;18.80;;
72037;SDS011;59900;50.788;12.904;2022-12-17T08:28:36;73.63;;;17.00;;
72037;SDS011;59900;50.788;12.904;2022-12-17T08:31:22;98.43;;;19.48;;
72037;SDS011;59900;50.788;12.904;2022-12-17T08:34:06;94.55;;;20.73;;
72037;SDS011;59900;50.788;12.904;2022-12-17T08:36:51;98.13;;;19.45;;
72037;SDS011;59900;50.788;12.904;2022-12-17T08:39:35;108.75;;;20.33;;
72037;SDS011;59900;50.788;12.904;2022-12-17T08:42:19;87.70;;;19.30;;
72037;SDS011;59900;50.788;12.904;2022-12-17T08:45:03;104.50;;;19.17;;
72037;SDS011;59900;50.788;12.904;2022-12-17T08:47:47;85.03;;;19.67;;
72037;SDS011;59900;50.788;12.904;2022-12-17T08:50:31;90.43;;;17.88;;
72037;SDS011;59900;50.788;12.904;2022-12-17T08:53:15;98.10;;;17.58;;
72037;SDS011;59900;50.788;12.904;2022-12-17T08:55:58;81.47;;;20.97;;
72037;SDS011;59900;50.788;12.904;2022-12-17T08:58:42;93.20;;;20.60;;
72037;SDS011;59900;50.788;12.904;2022-12-17T09:01:26;86.72;;;18.95;;
72037;SDS011;59900;50.788;12.904;2022-12-17T09:04:10;83.75;;;20.20;;
72037;SDS011;59900;50.788;12.904;2022-12-17T09:06:53;92.97;;;20.92;;
72037;SDS011;59900;50.788;12.904;2022-12-17T09:09:37;80.03;;;19.93;;
72037;SDS011;59900;50.788;12.904;2022-12-17T09:12:21;88.72;;;16.85;;
72037;SDS011;59900;50.788;12.904;2022-12-17T09:15:05;72.35;;;17.70;;
72037;SDS011;59900;50.788;12.904;2022-12-17T09:17:50;69.18;;;18.40;;
72037;SDS011;59900;50.788;12.904;2022-12-17T09:20:34;72.15;;;16.73;;
72037;SDS011;59900;50.788;12.904;2022-12-17T09:23:18;60.43;;;15.80;;
72037;SDS011;59900;50.788;12.904;2022-12-17T09:26:02;51.75;;;14.68;;
72037;SDS011;59900;50.788;12.904;2022-12-17T09:28:46;72.57;;;16.25;;
72037;SDS011;59900;50.788;12.904;2022-12-17T09:31:30;66.13;;;16.67;;
72037;SDS011;59900;50.788;12.904;2022-12-17T09:34:14;66.63;;;15.48;;
72037;SDS011;59900;50.788;12.904;2022-12-17T09:36:58;62.33;;;15.63;;
72037;SDS011;59900;50.788;12.904;2022-12-17T09:39:42;62.45;;;15.52;;
72037;SDS011;59900;50.788;12.904;2022-12-17T09:42:30;60.60;;;16.15;;
72037;SDS011;59900;50.788;12.904;2022-12-17T09:45:30;55.42;;;16.17;;
72037;SDS011;59900;50.788;12.904;2022-12-17T09:51:19;58.00;;;14.13;;
72037;SDS011;59900;50.788;12.904;2022-12-17T09:54:28;48.53;;;14.57;;
72037;SDS011;59900;50.788;12.904;2022-12-17T09:57:17;45.58;;;12.93;;
72037;SDS011;59900;50.788;12.904;2022-12-17T10:00:09;49.70;;;15.25;;
72037;SDS011;59900;50.788;12.904;2022-12-17T10:02:57;51.60;;;15.80;;
72037;SDS011;59900;50.788;12.904;2022-12-17T10:05:41;52.67;;;13.93;;
72037;SDS011;59900;50.788;12.904;2022-12-17T10:08:27;62.40;;;16.15;;
72037;SDS011;59900;50.788;12.904;2022-12-17T10:11:22;61.50;;;16.13;;
72037;SDS011;59900;50.788;12.904;2022-12-17T10:14:16;50.67;;;15.13;;
72037;SDS011;59900;50.788;12.904;2022-12-17T10:17:08;43.38;;;13.02;;
72037;SDS011;59900;50.788;12.904;2022-12-17T10:19:58;49.10;;;13.87;;
72037;SDS011;59900;50.788;12.904;2022-12-17T10:22:44;41.92;;;12.18;;
72037;SDS011;59900;50.788;12.904;2022-12-17T10:25:33;52.90;;;15.00;;
72037;SDS011;59900;50.788;12.904;2022-12-17T10:28:22;45.70;;;14.27;;
72037;SDS011;59900;50.788;12.904;2022-12-17T10:31:14;52.92;;;15.63;;
72037;SDS011;59900;50.788;12.904;2022-12-17T10:34:00;40.37;;;13.77;;
72037;SDS011;59900;50.788;12.904;2022-12-17T10:36:48;46.47;;;12.50;;
72037;SDS011;59900;50.788;12.904;2022-12-17T10:39:33;41.47;;;13.05;;
72037;SDS011;59900;50.788;12.904;2022-12-17T10:42:18;31.77;;;11.32;;
72037;SDS011;59900;50.788;12.904;2022-12-17T10:45:25;38.50;;;13.07;;
72037;SDS011;59900;50.788;12.904;2022-12-17T10:48:29;38.90;;;12.73;;
72037;SDS011;59900;50.788;12.904;2022-12-17T10:51:24;35.08;;;11.88;;
72037;SDS011;59900;50.788;12.904;2022-12-17T10:54:23;35.35;;;13.05;;
72037;SDS011;59900;50.788;12.904;2022-12-17T10:57:19;35.28;;;12.00;;
72037;SDS011;59900;50.788;12.904;2022-12-17T11:02:59;42.10;;;11.57;;
72037;SDS011;59900;50.788;12.904;2022-12-17T11:05:44;34.80;;;11.30;;
72037;SDS011;59900;50.788;12.904;2022-12-17T11:08:28;34.58;;;11.77;;
72037;SDS011;59900;50.788;12.904;2022-12-17T11:11:13;28.83;;;11.68;;
72037;SDS011;59900;50.788;12.904;2022-12-17T11:13:59;38.30;;;12.27;;
72037;SDS011;59900;50.788;12.904;2022-12-17T11:16:50;33.63;;;11.87;;
72037;SDS011;59900;50.788;12.904;2022-12-17T11:19:54;27.65;;;11.15;;
72037;SDS011;59900;50.788;12.904;2022-12-17T11:22:50;29.67;;;11.63;;
72037;SDS011;59900;50.788;12.904;2022-12-17T11:28:37;26.25;;;10.15;;
72037;SDS011;59900;50.788;12.904;2022-12-17T11:31:34;28.47;;;10.13;;
72037;SDS011;59900;50.788;12.904;2022-12-17T11:34:32;24.92;;;10.40;;
72037;SDS011;59900;50.788;12.904;2022-12-17T11:37:42;26.55;;;10.07;;
72037;SDS011;59900;50.788;12.904;2022-12-17T11:40:36;26.25;;;9.75;;
72037;SDS011;59900;50.788;12.904;2022-12-17T11:52:48;23.45;;;9.30;;
72037;SDS011;59900;50.788;12.904;2022-12-17T11:58:41;22.13;;;9.50;;
72037;SDS011;59900;50.788;12.904;2022-12-17T12:01:46;22.10;;;8.77;;
72037;SDS011;59900;50.788;12.904;2022-12-17T12:08:08;24.70;;;9.73;;
72037;SDS011;59900;50.788;12.904;2022-12-17T12:11:07;19.70;;;9.05;;
72037;SDS011;59900;50.788;12.904;2022-12-17T12:14:06;24.13;;;9.52;;
72037;SDS011;59900;50.788;12.904;2022-12-17T12:23:14;27.48;;;11.65;;
72037;SDS011;59900;50.788;12.904;2022-12-17T12:26:15;21.17;;;10.32;;
72037;SDS011;59900;50.788;12.904;2022-12-17T12:29:11;20.80;;;9.68;;
72037;SDS011;59900;50.788;12.904;2022-12-17T12:34:46;23.05;;;8.95;;
72037;SDS011;59900;50.788;12.904;2022-12-17T12:37:30;22.52;;;9.40;;
72037;SDS011;59900;50.788;12.904;2022-12-17T12:40:27;26.13;;;10.07;;
72037;SDS011;59900;50.788;12.904;2022-12-17T12:43:30;22.85;;;8.23;;
72037;SDS011;59900;50.788;12.904;2022-12-17T12:46:22;19.80;;;8.37;;
72037;SDS011;59900;50.788;12.904;2022-12-17T12:49:12;19.92;;;8.07;;
72037;SDS011;59900;50.788;12.904;2022-12-17T12:52:17;21.60;;;9.52;;
72037;SDS011;59900;50.788;12.904;2022-12-17T12:55:05;20.80;;;8.88;;
72037;SDS011;59900;50.788;12.904;2022-12-17T12:57:58;20.98;;;9.57;;
72037;SDS011;59900;50.788;12.904;2022-12-17T13:03:37;21.50;;;9.50;;
72037;SDS011;59900;50.788;12.904;2022-12-17T13:14:43;22.40;;;9.30;;
72037;SDS011;59900;50.788;12.904;2022-12-17T13:22:25;21.52;;;9.60;;
72037;SDS011;59900;50.788;12.904;2022-12-17T13:24:54;25.23;;;9.48;;
72037;SDS011;59900;50.788;12.904;2022-12-17T13:27:40;24.93;;;8.57;;
72037;SDS011;59900;50.788;12.904;2022-12-17T13:38:41;24.10;;;11.00;;
72037;SDS011;59900;50.788;12.904;2022-12-17T13:41:14;24.33;;;10.30;;
72037;SDS011;59900;50.788;12.904;2022-12-17T13:48:55;28.73;;;10.82;;
72037;SDS011;59900;50.788;12.904;2022-12-17T13:51:22;25.35;;;11.00;;
72037;SDS011;59900;50.788;12.904;2022-12-17T13:53:53;25.63;;;10.87;;
72037;SDS011;59900;50.788;12.904;2022-12-17T13:56:21;26.63;;;9.75;;
72037;SDS011;59900;50.788;12.904;2022-12-17T13:58:57;27.65;;;10.57;;
72037;SDS011;59900;50.788;12.904;2022-12-17T14:01:26;25.08;;;10.25;;
72037;SDS011;59900;50.788;12.904;2022-12-17T14:03:53;24.47;;;10.93;;
72037;SDS011;59900;50.788;12.904;2022-12-17T14:06:21;24.98;;;9.93;;
72037;SDS011;59900;50.788;12.904;2022-12-17T14:08:49;25.35;;;10.02;;
72037;SDS011;59900;50.788;12.904;2022-12-17T14:11:16;25.00;;;10.60;;
72037;SDS011;59900;50.788;12.904;2022-12-17T14:14:00;22.73;;;9.63;;
72037;SDS011;59900;50.788;12.904;2022-12-17T14:16:27;20.83;;;9.73;;
72037;SDS011;59900;50.788;12.904;2022-12-17T14:18:54;24.13;;;10.45;;
72037;SDS011;59900;50.788;12.904;2022-12-17T14:21:22;19.08;;;8.48;;
72037;SDS011;59900;50.788;12.904;2022-12-17T14:23:48;23.00;;;8.90;;
72037;SDS011;59900;50.788;12.904;2022-12-17T14:26:15;23.02;;;9.05;;
72037;SDS011;59900;50.788;12.904;2022-12-17T14:28:45;20.40;;;9.47;;
72037;SDS011;59900;50.788;12.904;2022-12-17T14:33:46;24.63;;;9.27;;
72037;SDS011;59900;50.788;12.904;2022-12-17T14:36:24;20.83;;;8.40;;
72037;SDS011;59900;50.788;12.904;2022-12-17T14:38:50;20.70;;;9.00;;
72037;SDS011;59900;50.788;12.904;2022-12-17T14:41:23;19.45;;;9.27;;
72037;SDS011;59900;50.788;12.904;2022-12-17T14:44:24;20.63;;;10.25;;
72037;SDS011;59900;50.788;12.904;2022-12-17T14:47:05;22.20;;;9.05;;
72037;SDS011;59900;50.788;12.904;2022-12-17T14:52:31;24.70;;;9.27;;
72037;SDS011;59900;50.788;12.904;2022-12-17T14:54:59;21.80;;;8.57;;
72037;SDS011;59900;50.788;12.904;2022-12-17T14:57:24;20.40;;;8.65;;
72037;SDS011;59900;50.788;12.904;2022-12-17T14:59:50;19.10;;;8.53;;
72037;SDS011;59900;50.788;12.904;2022-12-17T15:02:23;17.65;;;8.15;;
72037;SDS011;59900;50.788;12.904;2022-12-17T15:04:52;18.80;;;7.83;;
72037;SDS011;59900;50.788;12.904;2022-12-17T15:07:21;21.73;;;8.25;;
72037;SDS011;59900;50.788;12.904;2022-12-17T15:09:49;20.48;;;8.60;;
72037;SDS011;59900;50.788;12.904;2022-12-17T15:12:16;23.02;;;9.05;;
72037;SDS011;59900;50.788;12.904;2022-12-17T15:14:41;21.47;;;9.67;;
72037;SDS011;59900;50.788;12.904;2022-12-17T15:17:06;23.60;;;9.73;;
72037;SDS011;59900;50.788;12.904;2022-12-17T15:19:32;19.00;;;7.70;;
72037;SDS011;59900;50.788;12.904;2022-12-17T15:21:57;18.27;;;8.80;;
72037;SDS011;59900;50.788;12.904;2022-12-17T15:24:22;21.00;;;9.17;;
72037;SDS011;59900;50.788;12.904;2022-12-17T15:26:48;17.93;;;9.27;;
72037;SDS011;59900;50.788;12.904;2022-12-17T15:29:14;24.33;;;9.73;;
72037;SDS011;59900;50.788;12.904;2022-12-17T15:31:39;22.53;;;8.97;;
72037;SDS011;59900;50.788;12.904;2022-12-17T15:34:04;19.73;;;8.83;;
72037;SDS011;59900;50.788;12.904;2022-12-17T15:36:30;17.97;;;7.67;;
72037;SDS011;59900;50.788;12.904;2022-12-17T15:38:56;19.17;;;8.30;;
72037;SDS011;59900;50.788;12.904;2022-12-17T15:41:21;21.53;;;10.17;;
72037;SDS011;59900;50.788;12.904;2022-12-17T15:44:05;20.42;;;8.50;;
72037;SDS011;59900;50.788;12.904;2022-12-17T15:46:30;22.33;;;9.13;;
72037;SDS011;59900;50.788;12.904;2022-12-17T15:48:55;19.07;;;8.67;;
72037;SDS011;59900;50.788;12.904;2022-12-17T15:51:21;22.87;;;9.80;;
72037;SDS011;59900;50.788;12.904;2022-12-17T15:53:47;19.23;;;8.35;;
72037;SDS011;59900;50.788;12.904;2022-12-17T15:59:04;22.53;;;9.30;;
72037;SDS011;59900;50.788;12.904;2022-12-17T16:01:29;22.13;;;9.67;;
72037;SDS011;59900;50.788;12.904;2022-12-17T16:03:56;23.10;;;9.77;;
72037;SDS011;59900;50.788;12.904;2022-12-17T16:06:21;19.50;;;9.00;;
72037;SDS011;59900;50.788;12.904;2022-12-17T16:08:46;21.13;;;8.50;;
72037;SDS011;59900;50.788;12.904;2022-12-17T16:11:12;25.50;;;9.17;;
72037;SDS011;59900;50.788;12.904;2022-12-17T16:13:39;22.27;;;8.52;;
72037;SDS011;59900;50.788;12.904;2022-12-17T16:16:05;19.67;;;8.80;;
72037;SDS011;59900;50.788;12.904;2022-12-17T16:18:31;24.10;;;9.20;;
72037;SDS011;59900;50.788;12.904;2022-12-17T16:21:06;19.73;;;9.13;;
72037;SDS011;59900;50.788;12.904;2022-12-17T16:23:32;19.42;;;8.38;;
72037;SDS011;59900;50.788;12.904;2022-12-17T16:25:58;24.00;;;8.55;;
72037;SDS011;59900;50.788;12.904;2022-12-17T16:28:25;20.57;;;8.90;;
72037;SDS011;59900;50.788;12.904;2022-12-17T16:31:02;21.08;;;8.18;;
72037;SDS011;59900;50.788;12.904;2022-12-17T16:33:36;20.02;;;9.70;;
72037;SDS011;59900;50.788;12.904;2022-12-17T16:36:05;19.88;;;9.60;;
72037;SDS011;59900;50.788;12.904;2022-12-17T16:38:31;18.65;;;8.65;;
72037;SDS011;59900;50.788;12.904;2022-12-17T16:40:58;18.73;;;8.53;;
72037;SDS011;59900;50.788;12.904;2022-12-17T16:43:25;21.30;;;10.15;;
72037;SDS011;59900;50.788;12.904;2022-12-17T16:45:52;23.02;;;10.13;;
72037;SDS011;59900;50.788;12.904;2022-12-17T16:48:19;20.77;;;10.23;;
72037;SDS011;59900;50.788;12.904;2022-12-17T16:50:45;23.48;;;10.27;;
72037;SDS011;59900;50.788;12.904;2022-12-17T16:53:11;24.40;;;10.90;;
72037;SDS011;59900;50.788;12.904;2022-12-17T16:55:43;22.63;;;9.93;;